createdAt,value
2023-03-10T00:01:28.473Z,4.40
2023-03-10T00:03:56.819Z,4.40
2023-03-10T00:06:25.859Z,4.40
2023-03-10T00:08:53.259Z,4.50
2023-03-10T00:11:20.762Z,4.40
2023-03-10T00:13:48.049Z,4.40
2023-03-10T00:16:19.669Z,4.50
2023-03-10T00:18:46.984Z,4.50
2023-03-10T00:21:18.537Z,4.50
2023-03-10T00:23:45.502Z,4.50
2023-03-10T00:26:13.336Z,4.40
2023-03-10T00:28:40.593Z,4.30
2023-03-10T00:31:08.858Z,4.30
2023-03-10T00:33:37.008Z,4.20
2023-03-10T00:36:05.365Z,4.20
2023-03-10T00:38:32.583Z,4.20
2023-03-10T00:41:07.032Z,4.20
2023-03-10T00:43:34.600Z,4.20
2023-03-10T00:46:01.804Z,4.20
2023-03-10T00:48:29.745Z,4.10
2023-03-10T00:50:57.016Z,4.20
2023-03-10T00:53:24.290Z,4.20
2023-03-10T00:56:01.627Z,4.10
2023-03-10T00:58:29.411Z,4.10
2023-03-10T01:00:56.350Z,4.00
2023-03-10T01:03:24.485Z,4.00
2023-03-10T01:05:52.297Z,4.00
2023-03-10T01:08:19.383Z,3.90
2023-03-10T01:10:46.320Z,3.90
2023-03-10T01:13:14.195Z,3.80
2023-03-10T01:15:44.634Z,3.70
2023-03-10T01:18:11.650Z,3.70
2023-03-10T01:20:41.672Z,3.70
2023-03-10T01:23:20.649Z,3.70
2023-03-10T01:25:49.142Z,3.60
2023-03-10T01:28:18.693Z,3.60
2023-03-10T01:30:46.014Z,3.50
2023-03-10T01:33:14.101Z,3.50
2023-03-10T01:35:41.598Z,3.50
2023-03-10T01:38:09.113Z,3.50
2023-03-10T01:40:37.268Z,3.50
2023-03-10T01:43:19.537Z,3.50
2023-03-10T01:45:46.587Z,3.50
2023-03-10T01:48:17.018Z,3.40
2023-03-10T01:50:45.469Z,3.50
2023-03-10T01:53:14.536Z,3.40
2023-03-10T01:55:43.684Z,3.40
2023-03-10T01:58:10.824Z,3.40
2023-03-10T02:00:37.799Z,3.40
2023-03-10T02:03:09.524Z,3.40
2023-03-10T02:05:38.294Z,3.40
2023-03-10T02:08:06.105Z,3.40
2023-03-10T02:10:33.201Z,3.40
2023-03-10T02:13:00.143Z,3.50
2023-03-10T02:15:27.259Z,3.60
2023-03-10T02:17:54.640Z,3.60
2023-03-10T02:20:21.589Z,3.70
2023-03-10T02:22:49.042Z,3.70
2023-03-10T02:25:15.923Z,3.80
2023-03-10T02:27:42.907Z,3.90
2023-03-10T02:30:14.761Z,3.90
2023-03-10T02:32:47.257Z,4.00
2023-03-10T02:35:14.319Z,4.00
2023-03-10T02:37:53.460Z,4.00
2023-03-10T02:40:40.819Z,4.00
2023-03-10T02:43:11.615Z,4.00
2023-03-10T02:45:39.889Z,4.00
2023-03-10T02:48:08.409Z,4.00
2023-03-10T02:50:36.903Z,4.00
2023-03-10T02:53:09.698Z,4.00
2023-03-10T02:55:37.321Z,4.00
2023-03-10T02:58:04.293Z,4.00
2023-03-10T03:00:31.455Z,4.00
2023-03-10T03:02:58.742Z,4.00
2023-03-10T03:05:25.835Z,4.00
2023-03-10T03:07:52.846Z,4.10
2023-03-10T03:10:22.283Z,4.20
2023-03-10T03:12:50.789Z,4.20
2023-03-10T03:15:19.013Z,4.30
2023-03-10T03:17:46.206Z,4.30
2023-03-10T03:20:14.585Z,4.40
2023-03-10T03:22:44.464Z,4.40
2023-03-10T03:25:12.797Z,4.50
2023-03-10T03:27:39.837Z,4.50
2023-03-10T03:30:07.739Z,4.50
2023-03-10T03:32:37.977Z,4.50
2023-03-10T03:35:09.536Z,4.60
2023-03-10T03:37:36.676Z,4.70
2023-03-10T03:40:12.797Z,4.80
2023-03-10T03:42:42.813Z,4.80
2023-03-10T03:45:11.166Z,4.80
2023-03-10T03:47:38.207Z,4.90
2023-03-10T03:50:05.937Z,5.00
2023-03-10T03:52:33.216Z,5.10
2023-03-10T03:55:01.174Z,5.10
2023-03-10T03:57:28.369Z,5.20
2023-03-10T03:59:55.440Z,5.30
2023-03-10T04:02:23.081Z,5.30
2023-03-10T04:04:50.566Z,5.40
2023-03-10T04:07:17.622Z,5.50
2023-03-10T04:09:45.419Z,5.50
2023-03-10T04:12:12.392Z,5.60
2023-03-10T04:14:42.352Z,5.70
2023-03-10T04:17:11.889Z,5.70
2023-03-10T04:19:39.259Z,5.70
2023-03-10T04:22:09.871Z,5.80
2023-03-10T04:24:40.573Z,5.70
2023-03-10T04:27:09.704Z,5.80
2023-03-10T04:29:37.168Z,5.90
2023-03-10T04:32:06.054Z,5.90
2023-03-10T04:34:38.077Z,6.00
2023-03-10T04:37:05.229Z,6.00
2023-03-10T04:39:33.310Z,6.10
2023-03-10T04:42:00.421Z,6.20
2023-03-10T04:44:31.618Z,6.20
2023-03-10T04:47:01.553Z,6.30
2023-03-10T04:49:28.955Z,6.30
2023-03-10T04:51:56.254Z,6.30
2023-03-10T04:54:23.722Z,6.30
2023-03-10T04:56:50.662Z,6.30
2023-03-10T04:59:18.085Z,6.30
2023-03-10T05:01:45.057Z,6.30
2023-03-10T05:04:12.083Z,6.30
2023-03-10T05:06:39.210Z,6.40
2023-03-10T05:09:13.557Z,6.40
2023-03-10T05:11:40.673Z,6.50
2023-03-10T05:14:08.644Z,6.50
2023-03-10T05:16:35.739Z,6.50
2023-03-10T05:19:02.928Z,6.50
2023-03-10T05:21:32.169Z,6.50
2023-03-10T05:23:59.494Z,6.60
2023-03-10T05:26:26.540Z,6.60
2023-03-10T05:28:53.984Z,6.60
2023-03-10T05:31:41.565Z,6.60
2023-03-10T05:34:14.283Z,6.70
2023-03-10T05:36:42.940Z,6.70
2023-03-10T05:39:11.096Z,6.70
2023-03-10T05:41:42.672Z,6.60
2023-03-10T05:44:10.618Z,6.60
2023-03-10T05:46:39.094Z,6.60
2023-03-10T05:49:06.157Z,6.70
2023-03-10T05:51:33.574Z,6.60
2023-03-10T05:54:02.664Z,6.70
2023-03-10T05:56:32.166Z,6.70
2023-03-10T05:59:01.686Z,6.70
2023-03-10T06:01:31.256Z,6.70
2023-03-10T06:03:58.447Z,6.70
2023-03-10T06:06:25.501Z,6.70
2023-03-10T06:08:52.443Z,6.70
2023-03-10T06:11:19.576Z,6.80
2023-03-10T06:13:46.473Z,6.70
2023-03-10T06:16:13.470Z,6.80
2023-03-10T06:18:40.493Z,6.80
2023-03-10T06:21:08.374Z,6.80
2023-03-10T06:23:35.875Z,7.10
2023-03-10T06:26:06.874Z,6.90
2023-03-10T06:28:36.709Z,6.90
2023-03-10T06:31:05.190Z,6.90
2023-03-10T06:33:32.784Z,6.90
2023-03-10T06:35:59.899Z,6.90
2023-03-10T06:38:26.878Z,6.90
2023-03-10T06:40:53.985Z,6.90
2023-03-10T06:43:21.016Z,6.90
2023-03-10T06:45:48.554Z,6.90
2023-03-10T06:48:15.635Z,7.00
2023-03-10T06:50:49.964Z,7.00
2023-03-10T06:53:20.736Z,7.00
2023-03-10T06:56:01.360Z,7.00
2023-03-10T06:58:28.941Z,7.00
2023-03-10T07:00:56.311Z,7.00
2023-03-10T07:03:25.104Z,7.10
2023-03-10T07:05:52.652Z,7.10
2023-03-10T07:08:19.597Z,7.10
2023-03-10T07:10:46.645Z,7.20
2023-03-10T07:13:17.460Z,7.20
2023-03-10T07:15:45.012Z,7.20
2023-03-10T07:18:12.546Z,7.20
2023-03-10T07:20:40.735Z,7.30
2023-03-10T07:23:07.872Z,7.30
2023-03-10T07:25:35.450Z,7.40
2023-03-10T07:28:02.498Z,7.40
2023-03-10T07:30:29.610Z,7.40
2023-03-10T07:32:56.752Z,7.50
2023-03-10T07:35:23.835Z,7.50
2023-03-10T07:37:50.841Z,7.60
2023-03-10T07:40:17.815Z,7.60
2023-03-10T07:42:44.760Z,7.70
2023-03-10T07:45:12.343Z,7.80
2023-03-10T07:47:39.356Z,7.80
2023-03-10T07:50:06.512Z,7.90
2023-03-10T07:52:33.496Z,8.00
2023-03-10T07:55:00.397Z,8.10
2023-03-10T07:57:28.380Z,8.10
2023-03-10T07:59:55.305Z,8.10
2023-03-10T08:02:22.309Z,8.00
2023-03-10T08:04:49.315Z,8.00
2023-03-10T08:07:16.295Z,8.00
2023-03-10T08:09:43.220Z,8.00
2023-03-10T08:12:10.286Z,8.00
2023-03-10T08:14:37.673Z,8.00
2023-03-10T08:17:04.677Z,8.10
2023-03-10T08:19:31.697Z,8.00
2023-03-10T08:21:58.759Z,8.10
2023-03-10T08:24:25.899Z,8.10
2023-03-10T08:26:52.924Z,8.20
2023-03-10T08:29:20.080Z,8.20
2023-03-10T08:31:47.093Z,8.40
2023-03-10T08:34:14.839Z,8.50
2023-03-10T08:36:41.839Z,8.60
2023-03-10T08:39:09.018Z,8.70
2023-03-10T08:41:37.641Z,8.70
2023-03-10T08:44:04.967Z,8.80
2023-03-10T08:46:32.349Z,8.80
2023-03-10T08:48:59.350Z,8.80
2023-03-10T08:51:28.700Z,8.80
2023-03-10T08:53:55.643Z,8.90
2023-03-10T08:56:23.214Z,9.00
2023-03-10T08:58:50.280Z,9.10
2023-03-10T09:01:17.586Z,9.30
2023-03-10T09:03:45.225Z,9.50
2023-03-10T09:06:12.760Z,9.60
2023-03-10T09:08:41.363Z,9.70
2023-03-10T09:11:09.192Z,9.90
2023-03-10T09:13:36.212Z,10.00
2023-03-10T09:16:03.149Z,10.10
2023-03-10T09:18:30.112Z,10.30
2023-03-10T09:20:57.060Z,10.30
2023-03-10T09:23:24.130Z,10.30
2023-03-10T09:25:51.025Z,10.40
2023-03-10T09:28:18.894Z,10.40
2023-03-10T09:30:46.021Z,10.30
2023-03-10T09:33:15.393Z,10.30
2023-03-10T09:35:52.543Z,10.30
2023-03-10T09:38:20.022Z,10.20
2023-03-10T09:40:51.136Z,10.10
2023-03-10T09:43:19.550Z,10.10
2023-03-10T09:46:00.874Z,10.10
2023-03-10T09:48:36.398Z,10.00
2023-03-10T09:51:08.539Z,10.00
2023-03-10T09:53:38.537Z,10.00
2023-03-10T09:56:13.502Z,10.00
2023-03-10T09:58:42.831Z,10.00
2023-03-10T10:01:17.558Z,10.10
2023-03-10T10:03:53.186Z,10.20
2023-03-10T10:06:28.017Z,10.10
2023-03-10T10:09:04.700Z,10.10
2023-03-10T10:11:33.490Z,10.10
2023-03-10T10:14:30.082Z,10.20
2023-03-10T10:17:04.032Z,10.30
2023-03-10T10:19:32.768Z,10.50
2023-03-10T10:22:23.537Z,10.70
2023-03-10T10:25:13.997Z,10.80
2023-03-10T10:27:41.666Z,10.90
2023-03-10T10:30:30.020Z,11.00
2023-03-10T10:33:01.622Z,11.10
2023-03-10T10:35:30.095Z,11.20
2023-03-10T10:38:03.693Z,11.30
2023-03-10T10:40:33.481Z,11.30
2023-03-10T10:43:07.893Z,11.20
2023-03-10T10:45:40.025Z,11.20
2023-03-10T10:48:07.125Z,11.20
2023-03-10T10:50:35.397Z,11.40
2023-03-10T10:53:24.316Z,11.60
2023-03-10T10:56:00.556Z,11.70
2023-03-10T10:58:30.096Z,11.60
2023-03-10T11:00:59.542Z,11.50
2023-03-10T11:03:38.605Z,11.50
2023-03-10T11:06:24.653Z,11.40
2023-03-10T11:08:52.337Z,11.50
2023-03-10T11:11:29.701Z,11.50
2023-03-10T11:14:15.456Z,11.60
2023-03-10T11:16:48.427Z,11.50
2023-03-10T11:19:29.708Z,11.50
2023-03-10T11:22:00.782Z,11.50
2023-03-10T11:24:27.766Z,11.50
2023-03-10T11:26:58.922Z,11.50
2023-03-10T11:29:29.025Z,11.40
2023-03-10T11:32:02.044Z,11.40
2023-03-10T11:34:30.708Z,11.40
2023-03-10T11:37:03.951Z,11.40
2023-03-10T11:39:43.996Z,11.40
2023-03-10T11:42:30.862Z,11.40
2023-03-10T11:44:57.903Z,11.40
2023-03-10T11:47:31.664Z,11.30
2023-03-10T11:50:17.992Z,11.30
2023-03-10T11:52:45.603Z,11.30
2023-03-10T11:55:17.911Z,11.30
2023-03-10T11:57:45.985Z,11.40
2023-03-10T12:00:26.565Z,11.30
2023-03-10T12:03:28.871Z,11.40
2023-03-10T12:05:57.647Z,11.40
2023-03-10T12:08:25.350Z,11.50
2023-03-10T12:10:53.035Z,11.50
2023-03-10T12:13:24.639Z,11.60
2023-03-10T12:15:53.745Z,11.70
2023-03-10T12:18:20.700Z,11.80
2023-03-10T12:20:47.653Z,11.90
2023-03-10T12:23:41.130Z,12.10
2023-03-10T12:26:08.211Z,12.10
2023-03-10T12:28:35.257Z,12.30
2023-03-10T12:31:02.235Z,12.50
2023-03-10T12:33:38.633Z,12.60
2023-03-10T12:36:12.753Z,12.60
2023-03-10T12:38:49.241Z,12.60
2023-03-10T12:41:28.524Z,12.60
2023-03-10T12:43:59.424Z,12.50
2023-03-10T12:46:29.499Z,12.50
2023-03-10T12:49:19.734Z,12.40
2023-03-10T12:51:49.668Z,12.30
2023-03-10T12:54:25.839Z,12.20
2023-03-10T12:57:10.140Z,12.30
2023-03-10T12:59:40.885Z,12.20
2023-03-10T13:02:23.740Z,12.20
2023-03-10T13:04:51.029Z,12.10
2023-03-10T13:07:18.236Z,12.10
2023-03-10T13:09:47.364Z,12.10
2023-03-10T13:12:20.240Z,12.10
2023-03-10T13:14:51.035Z,12.10
2023-03-10T13:17:23.067Z,12.10
2023-03-10T13:19:57.837Z,12.20
2023-03-10T13:22:24.740Z,12.30
2023-03-10T13:25:01.373Z,12.30
2023-03-10T13:27:32.830Z,12.40
2023-03-10T13:30:05.921Z,12.50
2023-03-10T13:32:33.337Z,12.60
2023-03-10T13:35:12.807Z,12.60
2023-03-10T13:37:39.838Z,12.70
2023-03-10T13:40:07.540Z,12.70
2023-03-10T13:42:43.810Z,12.70
2023-03-10T13:45:21.732Z,12.70
2023-03-10T13:47:48.704Z,12.80
2023-03-10T13:50:16.123Z,12.80
2023-03-10T13:52:52.976Z,12.80
2023-03-10T13:55:19.996Z,12.80
2023-03-10T13:57:48.401Z,12.80
2023-03-10T14:00:17.165Z,12.80
2023-03-10T14:02:47.612Z,12.80
2023-03-10T14:05:33.316Z,12.80
2023-03-10T14:08:00.975Z,12.80
2023-03-10T14:10:27.878Z,12.80
2023-03-10T14:12:55.412Z,12.70
2023-03-10T14:15:22.618Z,12.70
2023-03-10T14:18:07.894Z,12.60
2023-03-10T14:20:38.706Z,12.60
2023-03-10T14:23:23.774Z,12.60
2023-03-10T14:25:52.888Z,12.60
2023-03-10T14:28:19.866Z,12.60
2023-03-10T14:30:47.131Z,12.60
2023-03-10T14:33:15.979Z,12.60
2023-03-10T14:35:43.532Z,12.60
2023-03-10T14:38:10.473Z,12.50
2023-03-10T14:40:39.772Z,12.50
2023-03-10T14:43:06.866Z,12.50
2023-03-10T14:45:40.757Z,12.40
2023-03-10T14:48:19.012Z,12.40
2023-03-10T14:50:46.742Z,12.40
2023-03-10T14:53:14.789Z,12.40
2023-03-10T14:55:42.957Z,12.40
2023-03-10T14:58:14.295Z,12.40
2023-03-10T15:00:41.303Z,12.40
2023-03-10T15:03:09.791Z,12.50
2023-03-10T15:05:48.273Z,12.60
2023-03-10T15:08:16.530Z,12.60
2023-03-10T15:10:46.857Z,12.60
2023-03-10T15:13:13.915Z,12.50
2023-03-10T15:15:44.083Z,12.40
2023-03-10T15:18:15.638Z,12.40
2023-03-10T15:20:42.577Z,12.40
2023-03-10T15:23:09.658Z,12.30
2023-03-10T15:25:36.638Z,12.20
2023-03-10T15:28:03.689Z,12.10
2023-03-10T15:30:32.530Z,12.10
2023-03-10T15:32:59.569Z,12.00
2023-03-10T15:35:26.658Z,12.00
2023-03-10T15:37:53.713Z,11.90
2023-03-10T15:40:24.345Z,11.80
2023-03-10T15:42:51.891Z,11.70
2023-03-10T15:45:18.982Z,11.60
2023-03-10T15:47:46.484Z,11.60
2023-03-10T15:50:14.319Z,11.50
2023-03-10T15:52:45.630Z,11.40
2023-03-10T15:55:14.951Z,11.40
2023-03-10T15:57:42.217Z,11.40
2023-03-10T16:00:09.564Z,11.30
2023-03-10T16:02:36.622Z,11.30
2023-03-10T16:05:04.976Z,11.10
2023-03-10T16:07:33.476Z,11.10
2023-03-10T16:10:00.476Z,11.00
2023-03-10T16:12:27.764Z,10.90
2023-03-10T16:14:55.536Z,10.90
2023-03-10T16:17:23.095Z,10.90
2023-03-10T16:19:50.220Z,10.80
2023-03-10T16:22:18.585Z,10.80
2023-03-10T16:24:45.624Z,10.80
2023-03-10T16:27:12.670Z,10.70
2023-03-10T16:29:40.530Z,10.70
2023-03-10T16:32:08.395Z,10.70
2023-03-10T16:34:35.365Z,10.60
2023-03-10T16:37:08.193Z,10.60
2023-03-10T16:39:36.624Z,10.60
2023-03-10T16:42:03.607Z,10.60
2023-03-10T16:44:30.586Z,10.60
2023-03-10T16:46:57.500Z,10.60
2023-03-10T16:49:24.437Z,10.60
2023-03-10T16:51:51.375Z,10.60
2023-03-10T16:54:22.028Z,10.60
2023-03-10T16:56:50.050Z,10.50
2023-03-10T16:59:18.771Z,10.50
2023-03-10T17:01:45.945Z,10.50
2023-03-10T17:04:12.937Z,10.40
2023-03-10T17:06:40.031Z,10.30
2023-03-10T17:09:07.765Z,10.20
2023-03-10T17:11:36.027Z,10.10
2023-03-10T17:14:03.795Z,10.10
2023-03-10T17:16:31.460Z,10.10
2023-03-10T17:18:59.324Z,10.10
2023-03-10T17:21:27.776Z,10.10
2023-03-10T17:23:55.152Z,10.10
2023-03-10T17:26:22.208Z,10.10
2023-03-10T17:28:50.176Z,10.10
2023-03-10T17:31:20.719Z,10.20
2023-03-10T17:33:47.771Z,10.40
2023-03-10T17:36:16.163Z,10.50
2023-03-10T17:38:43.670Z,10.50
2023-03-10T17:41:12.056Z,10.60
2023-03-10T17:43:39.558Z,10.70
2023-03-10T17:46:08.207Z,10.70
2023-03-10T17:48:35.907Z,10.70
2023-03-10T17:51:03.198Z,10.70
2023-03-10T17:53:30.723Z,10.60
2023-03-10T17:55:57.962Z,10.60
2023-03-10T17:58:26.593Z,10.60
2023-03-10T18:00:53.739Z,10.50
2023-03-10T18:03:21.012Z,10.50
2023-03-10T18:05:48.010Z,10.50
2023-03-10T18:08:14.987Z,10.50
2023-03-10T18:10:41.965Z,10.40
2023-03-10T18:13:10.746Z,10.00
2023-03-10T18:15:38.370Z,10.30
2023-03-10T18:18:05.377Z,10.20
2023-03-10T18:20:32.397Z,10.20
2023-03-10T18:23:00.591Z,10.10
2023-03-10T18:25:27.517Z,10.00
2023-03-10T18:27:54.497Z,9.80
2023-03-10T18:30:21.502Z,9.80
2023-03-10T18:32:48.541Z,9.80
2023-03-10T18:35:15.480Z,9.80
2023-03-10T18:37:42.462Z,9.70
2023-03-10T18:40:12.815Z,9.70
2023-03-10T18:42:39.760Z,9.70
2023-03-10T18:45:07.048Z,9.60
2023-03-10T18:47:33.958Z,9.60
2023-03-10T18:50:00.869Z,9.50
2023-03-10T18:52:27.803Z,9.40
2023-03-10T18:54:54.797Z,9.40
2023-03-10T18:57:21.758Z,9.30
2023-03-10T18:59:48.683Z,9.30
2023-03-10T19:02:15.743Z,9.30
2023-03-10T19:04:47.679Z,9.20
2023-03-10T19:07:15.540Z,9.20
2023-03-10T19:09:42.457Z,9.20
2023-03-10T19:12:09.419Z,9.20
2023-03-10T19:14:36.371Z,9.10
2023-03-10T19:17:03.687Z,9.10
2023-03-10T19:19:30.685Z,9.00
2023-03-10T19:21:57.594Z,9.00
2023-03-10T19:24:25.356Z,9.00
2023-03-10T19:26:52.352Z,9.00
2023-03-10T19:29:19.281Z,9.00
2023-03-10T19:31:46.463Z,9.00
2023-03-10T19:34:13.505Z,9.00
2023-03-10T19:36:40.465Z,9.00
2023-03-10T19:39:07.416Z,9.00
2023-03-10T19:41:34.344Z,9.00
2023-03-10T19:44:01.400Z,9.00
2023-03-10T19:46:28.441Z,9.00
2023-03-10T19:48:55.449Z,9.00
2023-03-10T19:51:23.654Z,9.00
2023-03-10T19:53:51.594Z,9.00
2023-03-10T19:56:18.818Z,9.00
2023-03-10T19:58:46.629Z,9.00
2023-03-10T20:01:14.908Z,9.00
2023-03-10T20:03:42.207Z,8.90
2023-03-10T20:06:09.589Z,8.90
2023-03-10T20:08:38.119Z,8.90
2023-03-10T20:11:05.361Z,8.80
2023-03-10T20:13:33.398Z,8.80
2023-03-10T20:16:00.356Z,8.80
2023-03-10T20:18:27.348Z,8.90
2023-03-10T20:20:54.313Z,8.90
2023-03-10T20:23:21.398Z,8.90
2023-03-10T20:25:48.596Z,8.90
2023-03-10T20:28:15.559Z,9.00
2023-03-10T20:30:42.535Z,9.00
2023-03-10T20:33:09.488Z,9.00
2023-03-10T20:35:38.375Z,9.00
2023-03-10T20:38:05.541Z,9.00
2023-03-10T20:40:32.458Z,9.10
2023-03-10T20:43:02.359Z,9.10
2023-03-10T20:45:29.456Z,9.20
2023-03-10T20:47:56.704Z,9.20
2023-03-10T20:50:24.018Z,9.20
2023-03-10T20:52:51.110Z,9.20
2023-03-10T20:55:19.918Z,9.50
2023-03-10T20:57:47.857Z,9.20
2023-03-10T21:00:16.628Z,9.20
2023-03-10T21:02:44.325Z,9.20
2023-03-10T21:05:11.564Z,9.10
2023-03-10T21:07:38.603Z,9.20
2023-03-10T21:10:06.651Z,9.10
2023-03-10T21:12:33.711Z,9.20
2023-03-10T21:15:00.689Z,9.20
2023-03-10T21:17:27.967Z,9.20
2023-03-10T21:19:54.957Z,9.20
2023-03-10T21:22:22.183Z,9.20
2023-03-10T21:24:49.536Z,9.20
2023-03-10T21:27:16.654Z,9.20
2023-03-10T21:29:43.642Z,9.20
2023-03-10T21:32:10.684Z,9.20
2023-03-10T21:34:37.639Z,9.20
2023-03-10T21:37:04.573Z,9.20
2023-03-10T21:39:31.498Z,9.20
2023-03-10T21:41:58.392Z,9.20
2023-03-10T21:44:25.374Z,9.20
2023-03-10T21:46:52.315Z,9.20
2023-03-10T21:49:19.213Z,9.20
2023-03-10T21:51:46.133Z,9.20
2023-03-10T21:54:13.242Z,9.20
2023-03-10T21:56:40.161Z,9.20
2023-03-10T21:59:07.632Z,9.20
2023-03-10T22:01:34.756Z,9.20
2023-03-10T22:04:01.850Z,9.20
2023-03-10T22:06:28.819Z,9.20
2023-03-10T22:08:55.742Z,9.10
2023-03-10T22:11:22.799Z,9.10
2023-03-10T22:13:49.828Z,9.10
2023-03-10T22:16:17.333Z,9.10
2023-03-10T22:18:44.719Z,9.20
2023-03-10T22:21:11.882Z,9.10
2023-03-10T22:23:38.886Z,9.10
2023-03-10T22:26:05.924Z,9.10
2023-03-10T22:28:32.908Z,9.10
2023-03-10T22:30:59.854Z,9.10
2023-03-10T22:33:26.994Z,9.10
2023-03-10T22:35:54.025Z,9.00
2023-03-10T22:38:21.262Z,9.00
2023-03-10T22:40:48.661Z,9.00
2023-03-10T22:43:15.700Z,9.00
2023-03-10T22:45:44.609Z,9.00
2023-03-10T22:48:11.537Z,9.00
2023-03-10T22:50:40.487Z,9.00
2023-03-10T22:53:11.897Z,9.00
2023-03-10T22:55:39.030Z,9.00
2023-03-10T22:58:06.981Z,9.00
2023-03-10T23:00:34.349Z,8.90
2023-03-10T23:03:01.379Z,8.90
2023-03-10T23:05:28.632Z,8.90
2023-03-10T23:07:55.567Z,8.90
2023-03-10T23:10:27.080Z,8.90
2023-03-10T23:12:54.632Z,8.90
2023-03-10T23:15:25.229Z,8.90
2023-03-10T23:17:53.283Z,8.80
2023-03-10T23:20:20.394Z,8.80
2023-03-10T23:22:47.442Z,8.80
2023-03-10T23:25:22.074Z,8.80
2023-03-10T23:27:49.125Z,8.80
2023-03-10T23:30:16.152Z,8.70
2023-03-10T23:32:44.308Z,8.70
2023-03-10T23:35:12.234Z,8.70
2023-03-10T23:37:39.174Z,8.70
2023-03-10T23:40:10.691Z,8.70
2023-03-10T23:42:38.599Z,8.70
2023-03-10T23:45:06.099Z,8.70
2023-03-10T23:47:33.809Z,8.60
2023-03-10T23:50:00.940Z,8.60
2023-03-10T23:52:28.130Z,8.60
2023-03-10T23:54:55.186Z,8.60
2023-03-10T23:57:22.126Z,8.70
2023-03-10T23:59:49.177Z,8.60
